KOPL/OPL METAR and TAF weather

Enter ICAO airport designator
Station Type Date Time Source
KOPL METAR 2021/03/07 08:35 UTC NOAA

KOPL 070835Z AUTO 03005KT 10SM CLR 05/00 A3029 RMK AO2 T00511001


Station Type Date Time Source
KOPL Decoded METAR 2021/03/07 08:35 UTC NOAA

Station name not available
Mar 07, 2021 - 03:35 AM EST / 2021.03.07 0835 UTC
Wind: from the NNE (030 degrees) at 6 MPH (5 KT):0
Visibility: 10 mile(s):0
Sky conditions: clear
Temperature: 41.2 F (5.1 C)
Dew Point: 31.8 F (-0.1 C)
Relative Humidity: 69%
Pressure (altimeter): 30.29 in. Hg (1025 hPa)
ob: KOPL 070835Z AUTO 03005KT 10SM CLR 05/00 A3029 RMK AO2 T00511001
cycle: 8

Station Type Date Time Source
KOPL TAF UTC NOAA

Error!

Example: see airport list